sensor_id;sensor_type;location;lat;lon;timestamp;P1;durP1;ratioP1;P2;durP2;ratioP2
66380;SDS011;53177;52.648;1.214;2023-03-31T00:01:23;24.35;;;3.63;;
66380;SDS011;53177;52.648;1.214;2023-03-31T00:03:48;22.63;;;3.30;;
66380;SDS011;53177;52.648;1.214;2023-03-31T00:06:14;28.60;;;3.67;;
66380;SDS011;53177;52.648;1.214;2023-03-31T00:08:43;22.27;;;2.78;;
66380;SDS011;53177;52.648;1.214;2023-03-31T00:11:09;22.27;;;3.00;;
66380;SDS011;53177;52.648;1.214;2023-03-31T00:13:36;26.33;;;3.80;;
66380;SDS011;53177;52.648;1.214;2023-03-31T00:16:05;25.10;;;3.90;;
66380;SDS011;53177;52.648;1.214;2023-03-31T00:18:33;27.35;;;4.05;;
66380;SDS011;53177;52.648;1.214;2023-03-31T00:21:04;27.00;;;4.47;;
66380;SDS011;53177;52.648;1.214;2023-03-31T00:23:31;29.65;;;3.67;;
66380;SDS011;53177;52.648;1.214;2023-03-31T00:25:56;24.53;;;4.30;;
66380;SDS011;53177;52.648;1.214;2023-03-31T00:28:22;27.90;;;4.00;;
66380;SDS011;53177;52.648;1.214;2023-03-31T00:30:48;23.83;;;3.80;;
66380;SDS011;53177;52.648;1.214;2023-03-31T00:33:13;25.17;;;3.38;;
66380;SDS011;53177;52.648;1.214;2023-03-31T00:35:38;21.10;;;3.30;;
66380;SDS011;53177;52.648;1.214;2023-03-31T00:38:04;21.93;;;3.87;;
66380;SDS011;53177;52.648;1.214;2023-03-31T00:40:32;17.40;;;3.00;;
66380;SDS011;53177;52.648;1.214;2023-03-31T00:42:58;18.33;;;3.00;;
66380;SDS011;53177;52.648;1.214;2023-03-31T00:45:25;20.80;;;3.50;;
66380;SDS011;53177;52.648;1.214;2023-03-31T00:48:02;18.17;;;2.80;;
66380;SDS011;53177;52.648;1.214;2023-03-31T00:50:35;20.52;;;2.85;;
66380;SDS011;53177;52.648;1.214;2023-03-31T00:53:06;22.13;;;2.67;;
66380;SDS011;53177;52.648;1.214;2023-03-31T00:55:37;17.75;;;3.08;;
66380;SDS011;53177;52.648;1.214;2023-03-31T00:58:06;15.60;;;2.60;;
66380;SDS011;53177;52.648;1.214;2023-03-31T01:00:33;17.90;;;2.53;;
66380;SDS011;53177;52.648;1.214;2023-03-31T01:02:58;20.00;;;2.60;;
66380;SDS011;53177;52.648;1.214;2023-03-31T01:08:08;20.87;;;3.20;;
66380;SDS011;53177;52.648;1.214;2023-03-31T01:10:35;17.48;;;2.90;;
66380;SDS011;53177;52.648;1.214;2023-03-31T01:13:05;14.23;;;2.40;;
66380;SDS011;53177;52.648;1.214;2023-03-31T01:15:33;16.23;;;2.28;;
66380;SDS011;53177;52.648;1.214;2023-03-31T01:17:58;14.97;;;2.40;;
66380;SDS011;53177;52.648;1.214;2023-03-31T01:29:00;11.25;;;2.38;;
66380;SDS011;53177;52.648;1.214;2023-03-31T01:40:02;11.17;;;2.00;;
66380;SDS011;53177;52.648;1.214;2023-03-31T01:45:18;10.60;;;2.20;;
66380;SDS011;53177;52.648;1.214;2023-03-31T01:48:03;12.13;;;2.40;;
66380;SDS011;53177;52.648;1.214;2023-03-31T01:53:20;10.67;;;2.20;;
66380;SDS011;53177;52.648;1.214;2023-03-31T01:55:59;12.20;;;2.45;;
66380;SDS011;53177;52.648;1.214;2023-03-31T01:58:35;9.57;;;2.10;;
66380;SDS011;53177;52.648;1.214;2023-03-31T02:01:24;8.80;;;1.95;;
66380;SDS011;53177;52.648;1.214;2023-03-31T02:04:08;13.88;;;2.30;;
66380;SDS011;53177;52.648;1.214;2023-03-31T02:06:39;12.63;;;2.27;;
66380;SDS011;53177;52.648;1.214;2023-03-31T02:09:15;15.43;;;2.95;;
66380;SDS011;53177;52.648;1.214;2023-03-31T02:11:44;11.77;;;2.25;;
66380;SDS011;53177;52.648;1.214;2023-03-31T02:14:13;11.25;;;2.78;;
66380;SDS011;53177;52.648;1.214;2023-03-31T02:16:43;16.58;;;2.60;;
66380;SDS011;53177;52.648;1.214;2023-03-31T02:19:11;13.63;;;2.60;;
66380;SDS011;53177;52.648;1.214;2023-03-31T02:21:42;16.50;;;2.90;;
66380;SDS011;53177;52.648;1.214;2023-03-31T02:24:12;18.83;;;2.90;;
66380;SDS011;53177;52.648;1.214;2023-03-31T02:26:51;16.63;;;3.00;;
66380;SDS011;53177;52.648;1.214;2023-03-31T02:29:27;17.30;;;3.22;;
66380;SDS011;53177;52.648;1.214;2023-03-31T02:34:33;15.23;;;2.65;;
66380;SDS011;53177;52.648;1.214;2023-03-31T02:36:58;19.43;;;3.10;;
66380;SDS011;53177;52.648;1.214;2023-03-31T02:39:24;18.50;;;3.47;;
66380;SDS011;53177;52.648;1.214;2023-03-31T02:41:55;19.13;;;3.40;;
66380;SDS011;53177;52.648;1.214;2023-03-31T02:44:20;13.23;;;2.93;;
66380;SDS011;53177;52.648;1.214;2023-03-31T02:46:46;18.15;;;3.50;;
66380;SDS011;53177;52.648;1.214;2023-03-31T02:49:12;16.13;;;3.55;;
66380;SDS011;53177;52.648;1.214;2023-03-31T02:51:55;15.00;;;3.27;;
66380;SDS011;53177;52.648;1.214;2023-03-31T03:07:46;17.57;;;3.40;;
66380;SDS011;53177;52.648;1.214;2023-03-31T03:15:36;16.70;;;3.63;;
66380;SDS011;53177;52.648;1.214;2023-03-31T03:18:08;12.13;;;3.03;;
66380;SDS011;53177;52.648;1.214;2023-03-31T03:20:34;20.47;;;4.50;;
66380;SDS011;53177;52.648;1.214;2023-03-31T03:23:00;13.82;;;3.30;;
66380;SDS011;53177;52.648;1.214;2023-03-31T03:25:25;17.30;;;3.67;;
66380;SDS011;53177;52.648;1.214;2023-03-31T03:27:51;17.60;;;3.37;;
66380;SDS011;53177;52.648;1.214;2023-03-31T03:30:19;14.73;;;3.45;;
66380;SDS011;53177;52.648;1.214;2023-03-31T03:32:45;21.05;;;3.70;;
66380;SDS011;53177;52.648;1.214;2023-03-31T03:35:11;18.23;;;4.30;;
66380;SDS011;53177;52.648;1.214;2023-03-31T03:37:36;18.23;;;3.70;;
66380;SDS011;53177;52.648;1.214;2023-03-31T03:40:02;15.77;;;3.63;;
66380;SDS011;53177;52.648;1.214;2023-03-31T03:42:30;16.40;;;3.80;;
66380;SDS011;53177;52.648;1.214;2023-03-31T03:44:55;19.25;;;4.03;;
66380;SDS011;53177;52.648;1.214;2023-03-31T03:47:21;15.07;;;3.20;;
66380;SDS011;53177;52.648;1.214;2023-03-31T03:49:46;13.40;;;3.33;;
66380;SDS011;53177;52.648;1.214;2023-03-31T03:52:13;18.02;;;3.83;;
66380;SDS011;53177;52.648;1.214;2023-03-31T03:54:38;17.83;;;4.03;;
66380;SDS011;53177;52.648;1.214;2023-03-31T03:57:03;16.53;;;3.00;;
66380;SDS011;53177;52.648;1.214;2023-03-31T03:59:29;19.87;;;3.83;;
66380;SDS011;53177;52.648;1.214;2023-03-31T04:01:54;14.82;;;3.20;;
66380;SDS011;53177;52.648;1.214;2023-03-31T04:04:20;17.20;;;4.10;;
66380;SDS011;53177;52.648;1.214;2023-03-31T04:06:45;14.07;;;3.57;;
66380;SDS011;53177;52.648;1.214;2023-03-31T04:09:10;17.53;;;3.97;;
66380;SDS011;53177;52.648;1.214;2023-03-31T04:11:36;13.00;;;3.30;;
66380;SDS011;53177;52.648;1.214;2023-03-31T04:14:01;11.57;;;3.50;;
66380;SDS011;53177;52.648;1.214;2023-03-31T04:16:27;12.90;;;3.40;;
66380;SDS011;53177;52.648;1.214;2023-03-31T04:18:53;15.43;;;3.37;;
66380;SDS011;53177;52.648;1.214;2023-03-31T04:21:23;20.10;;;3.85;;
66380;SDS011;53177;52.648;1.214;2023-03-31T04:23:49;14.23;;;3.67;;
66380;SDS011;53177;52.648;1.214;2023-03-31T04:26:22;16.10;;;4.20;;
66380;SDS011;53177;52.648;1.214;2023-03-31T04:28:54;16.80;;;3.80;;
66380;SDS011;53177;52.648;1.214;2023-03-31T04:31:24;15.45;;;3.53;;
66380;SDS011;53177;52.648;1.214;2023-03-31T04:33:53;15.32;;;4.03;;
66380;SDS011;53177;52.648;1.214;2023-03-31T04:36:19;15.97;;;3.80;;
66380;SDS011;53177;52.648;1.214;2023-03-31T04:38:47;17.52;;;4.05;;
66380;SDS011;53177;52.648;1.214;2023-03-31T04:41:18;19.25;;;3.95;;
66380;SDS011;53177;52.648;1.214;2023-03-31T04:43:44;19.15;;;3.60;;
66380;SDS011;53177;52.648;1.214;2023-03-31T04:46:10;13.40;;;3.47;;
66380;SDS011;53177;52.648;1.214;2023-03-31T04:48:35;15.07;;;3.70;;
66380;SDS011;53177;52.648;1.214;2023-03-31T04:51:01;14.68;;;3.83;;
66380;SDS011;53177;52.648;1.214;2023-03-31T04:53:27;18.37;;;3.77;;
66380;SDS011;53177;52.648;1.214;2023-03-31T04:55:52;18.03;;;3.77;;
66380;SDS011;53177;52.648;1.214;2023-03-31T04:58:18;16.77;;;3.53;;
66380;SDS011;53177;52.648;1.214;2023-03-31T05:00:43;13.13;;;3.23;;
66380;SDS011;53177;52.648;1.214;2023-03-31T05:03:09;19.33;;;3.73;;
66380;SDS011;53177;52.648;1.214;2023-03-31T05:05:35;13.57;;;3.43;;
66380;SDS011;53177;52.648;1.214;2023-03-31T05:08:03;16.95;;;3.50;;
66380;SDS011;53177;52.648;1.214;2023-03-31T05:10:29;17.83;;;4.07;;
66380;SDS011;53177;52.648;1.214;2023-03-31T05:13:00;17.25;;;3.35;;
66380;SDS011;53177;52.648;1.214;2023-03-31T05:15:26;14.07;;;3.13;;
66380;SDS011;53177;52.648;1.214;2023-03-31T05:17:51;13.20;;;3.03;;
66380;SDS011;53177;52.648;1.214;2023-03-31T05:20:17;20.03;;;3.40;;
66380;SDS011;53177;52.648;1.214;2023-03-31T05:22:44;15.48;;;3.97;;
66380;SDS011;53177;52.648;1.214;2023-03-31T05:25:10;16.38;;;3.47;;
66380;SDS011;53177;52.648;1.214;2023-03-31T05:27:38;14.98;;;3.35;;
66380;SDS011;53177;52.648;1.214;2023-03-31T05:30:04;14.70;;;3.00;;
66380;SDS011;53177;52.648;1.214;2023-03-31T05:32:32;11.18;;;2.83;;
66380;SDS011;53177;52.648;1.214;2023-03-31T05:34:57;12.53;;;2.93;;
66380;SDS011;53177;52.648;1.214;2023-03-31T05:37:23;20.83;;;3.47;;
66380;SDS011;53177;52.648;1.214;2023-03-31T05:39:49;14.88;;;3.08;;
66380;SDS011;53177;52.648;1.214;2023-03-31T05:42:15;16.60;;;2.90;;
66380;SDS011;53177;52.648;1.214;2023-03-31T05:44:40;12.70;;;3.08;;
66380;SDS011;53177;52.648;1.214;2023-03-31T05:47:05;17.25;;;3.28;;
66380;SDS011;53177;52.648;1.214;2023-03-31T05:49:31;15.73;;;3.00;;
66380;SDS011;53177;52.648;1.214;2023-03-31T05:51:56;14.97;;;2.93;;
66380;SDS011;53177;52.648;1.214;2023-03-31T05:54:22;14.83;;;2.63;;
66380;SDS011;53177;52.648;1.214;2023-03-31T05:56:47;20.60;;;2.97;;
66380;SDS011;53177;52.648;1.214;2023-03-31T05:59:13;19.52;;;3.90;;
66380;SDS011;53177;52.648;1.214;2023-03-31T06:01:38;16.43;;;2.73;;
66380;SDS011;53177;52.648;1.214;2023-03-31T06:04:04;15.93;;;3.03;;
66380;SDS011;53177;52.648;1.214;2023-03-31T06:06:29;17.57;;;2.67;;
66380;SDS011;53177;52.648;1.214;2023-03-31T06:08:57;19.08;;;2.97;;
66380;SDS011;53177;52.648;1.214;2023-03-31T06:11:22;18.70;;;2.80;;
66380;SDS011;53177;52.648;1.214;2023-03-31T06:13:47;13.87;;;3.20;;
66380;SDS011;53177;52.648;1.214;2023-03-31T06:16:13;17.00;;;2.57;;
66380;SDS011;53177;52.648;1.214;2023-03-31T06:18:40;22.25;;;3.80;;
66380;SDS011;53177;52.648;1.214;2023-03-31T06:21:06;18.45;;;2.70;;
66380;SDS011;53177;52.648;1.214;2023-03-31T06:23:32;15.47;;;2.87;;
66380;SDS011;53177;52.648;1.214;2023-03-31T06:25:59;16.40;;;2.27;;
66380;SDS011;53177;52.648;1.214;2023-03-31T06:28:30;19.17;;;3.50;;
66380;SDS011;53177;52.648;1.214;2023-03-31T06:31:02;15.07;;;2.37;;
66380;SDS011;53177;52.648;1.214;2023-03-31T06:33:30;16.33;;;3.05;;
66380;SDS011;53177;52.648;1.214;2023-03-31T06:35:56;18.73;;;2.83;;
66380;SDS011;53177;52.648;1.214;2023-03-31T06:38:24;19.48;;;2.35;;
66380;SDS011;53177;52.648;1.214;2023-03-31T06:40:50;20.13;;;3.05;;
66380;SDS011;53177;52.648;1.214;2023-03-31T06:43:15;17.27;;;3.03;;
66380;SDS011;53177;52.648;1.214;2023-03-31T06:45:41;21.87;;;3.30;;
66380;SDS011;53177;52.648;1.214;2023-03-31T06:48:06;16.93;;;2.67;;
66380;SDS011;53177;52.648;1.214;2023-03-31T06:50:31;18.00;;;2.87;;
66380;SDS011;53177;52.648;1.214;2023-03-31T06:52:57;20.65;;;3.30;;
66380;SDS011;53177;52.648;1.214;2023-03-31T06:55:22;19.13;;;2.67;;
66380;SDS011;53177;52.648;1.214;2023-03-31T06:57:48;13.53;;;2.47;;
66380;SDS011;53177;52.648;1.214;2023-03-31T07:00:14;15.73;;;2.65;;
66380;SDS011;53177;52.648;1.214;2023-03-31T07:02:41;15.17;;;3.23;;
66380;SDS011;53177;52.648;1.214;2023-03-31T07:05:07;19.88;;;2.85;;
66380;SDS011;53177;52.648;1.214;2023-03-31T07:07:32;14.73;;;2.17;;
66380;SDS011;53177;52.648;1.214;2023-03-31T07:09:58;17.87;;;3.07;;
66380;SDS011;53177;52.648;1.214;2023-03-31T07:12:23;16.23;;;2.30;;
66380;SDS011;53177;52.648;1.214;2023-03-31T07:14:49;17.33;;;3.28;;
66380;SDS011;53177;52.648;1.214;2023-03-31T07:17:14;16.63;;;2.58;;
66380;SDS011;53177;52.648;1.214;2023-03-31T07:19:40;20.03;;;3.00;;
66380;SDS011;53177;52.648;1.214;2023-03-31T07:22:06;18.15;;;3.95;;
66380;SDS011;53177;52.648;1.214;2023-03-31T07:24:32;21.65;;;4.40;;
66380;SDS011;53177;52.648;1.214;2023-03-31T07:26:57;18.40;;;3.13;;
66380;SDS011;53177;52.648;1.214;2023-03-31T07:29:23;14.60;;;2.50;;
66380;SDS011;53177;52.648;1.214;2023-03-31T07:31:48;16.73;;;2.80;;
66380;SDS011;53177;52.648;1.214;2023-03-31T07:34:14;15.95;;;2.60;;
66380;SDS011;53177;52.648;1.214;2023-03-31T07:36:40;18.07;;;2.53;;
66380;SDS011;53177;52.648;1.214;2023-03-31T07:39:05;15.53;;;2.67;;
66380;SDS011;53177;52.648;1.214;2023-03-31T07:41:31;18.42;;;2.30;;
66380;SDS011;53177;52.648;1.214;2023-03-31T07:43:56;19.80;;;2.10;;
66380;SDS011;53177;52.648;1.214;2023-03-31T07:46:22;15.37;;;2.50;;
66380;SDS011;53177;52.648;1.214;2023-03-31T07:48:50;17.17;;;2.55;;
66380;SDS011;53177;52.648;1.214;2023-03-31T07:51:17;14.30;;;2.42;;
66380;SDS011;53177;52.648;1.214;2023-03-31T07:53:45;16.63;;;2.40;;
66380;SDS011;53177;52.648;1.214;2023-03-31T07:56:13;16.95;;;2.63;;
66380;SDS011;53177;52.648;1.214;2023-03-31T07:58:38;15.60;;;2.00;;
66380;SDS011;53177;52.648;1.214;2023-03-31T08:01:04;14.53;;;2.23;;
66380;SDS011;53177;52.648;1.214;2023-03-31T08:03:29;14.47;;;2.20;;
66380;SDS011;53177;52.648;1.214;2023-03-31T08:05:56;13.98;;;1.92;;
66380;SDS011;53177;52.648;1.214;2023-03-31T08:08:21;13.17;;;2.77;;
66380;SDS011;53177;52.648;1.214;2023-03-31T08:10:47;15.73;;;2.63;;
66380;SDS011;53177;52.648;1.214;2023-03-31T08:13:12;12.68;;;2.15;;
66380;SDS011;53177;52.648;1.214;2023-03-31T08:15:38;18.43;;;2.43;;
66380;SDS011;53177;52.648;1.214;2023-03-31T08:18:03;13.95;;;2.25;;
66380;SDS011;53177;52.648;1.214;2023-03-31T08:20:29;15.90;;;2.30;;
66380;SDS011;53177;52.648;1.214;2023-03-31T08:22:55;15.43;;;2.90;;
66380;SDS011;53177;52.648;1.214;2023-03-31T08:25:20;14.10;;;2.70;;
66380;SDS011;53177;52.648;1.214;2023-03-31T08:27:47;15.38;;;2.55;;
66380;SDS011;53177;52.648;1.214;2023-03-31T08:30:15;12.98;;;2.30;;
66380;SDS011;53177;52.648;1.214;2023-03-31T08:32:43;13.63;;;2.83;;
66380;SDS011;53177;52.648;1.214;2023-03-31T08:35:08;12.80;;;1.98;;
66380;SDS011;53177;52.648;1.214;2023-03-31T08:37:35;17.07;;;2.03;;
66380;SDS011;53177;52.648;1.214;2023-03-31T08:40:02;20.20;;;2.78;;
66380;SDS011;53177;52.648;1.214;2023-03-31T08:42:44;14.05;;;2.28;;
66380;SDS011;53177;52.648;1.214;2023-03-31T08:45:16;16.63;;;2.72;;
66380;SDS011;53177;52.648;1.214;2023-03-31T08:47:43;16.73;;;2.40;;
66380;SDS011;53177;52.648;1.214;2023-03-31T08:50:16;16.70;;;2.37;;
66380;SDS011;53177;52.648;1.214;2023-03-31T08:52:50;10.02;;;1.60;;
66380;SDS011;53177;52.648;1.214;2023-03-31T08:55:24;15.98;;;2.35;;
66380;SDS011;53177;52.648;1.214;2023-03-31T09:01:04;15.90;;;2.42;;
66380;SDS011;53177;52.648;1.214;2023-03-31T09:06:47;11.68;;;2.10;;
66380;SDS011;53177;52.648;1.214;2023-03-31T09:09:35;11.35;;;2.03;;
66380;SDS011;53177;52.648;1.214;2023-03-31T09:12:04;9.98;;;2.20;;
66380;SDS011;53177;52.648;1.214;2023-03-31T09:14:40;11.35;;;1.65;;
66380;SDS011;53177;52.648;1.214;2023-03-31T09:17:25;15.80;;;2.03;;
66380;SDS011;53177;52.648;1.214;2023-03-31T09:19:59;13.65;;;2.22;;
66380;SDS011;53177;52.648;1.214;2023-03-31T09:22:40;14.23;;;2.13;;
66380;SDS011;53177;52.648;1.214;2023-03-31T09:25:19;12.55;;;1.77;;
66380;SDS011;53177;52.648;1.214;2023-03-31T09:27:50;8.63;;;1.52;;
66380;SDS011;53177;52.648;1.214;2023-03-31T09:30:23;12.07;;;2.10;;
66380;SDS011;53177;52.648;1.214;2023-03-31T09:32:52;13.35;;;2.00;;
66380;SDS011;53177;52.648;1.214;2023-03-31T09:35:28;15.38;;;1.95;;
66380;SDS011;53177;52.648;1.214;2023-03-31T09:37:57;11.93;;;1.98;;
66380;SDS011;53177;52.648;1.214;2023-03-31T09:40:24;11.48;;;1.95;;
66380;SDS011;53177;52.648;1.214;2023-03-31T09:42:57;13.07;;;2.10;;
66380;SDS011;53177;52.648;1.214;2023-03-31T09:45:25;14.02;;;2.55;;
66380;SDS011;53177;52.648;1.214;2023-03-31T09:47:52;14.35;;;2.10;;
66380;SDS011;53177;52.648;1.214;2023-03-31T09:50:20;13.18;;;1.67;;
66380;SDS011;53177;52.648;1.214;2023-03-31T09:52:49;10.35;;;1.77;;
66380;SDS011;53177;52.648;1.214;2023-03-31T09:55:27;9.90;;;2.05;;
66380;SDS011;53177;52.648;1.214;2023-03-31T09:58:07;12.93;;;2.30;;
66380;SDS011;53177;52.648;1.214;2023-03-31T10:00:39;9.85;;;2.00;;
66380;SDS011;53177;52.648;1.214;2023-03-31T10:03:06;11.02;;;2.10;;
66380;SDS011;53177;52.648;1.214;2023-03-31T10:08:28;10.50;;;2.03;;
66380;SDS011;53177;52.648;1.214;2023-03-31T10:13:28;12.93;;;3.03;;
66380;SDS011;53177;52.648;1.214;2023-03-31T10:16:01;10.73;;;2.25;;
66380;SDS011;53177;52.648;1.214;2023-03-31T10:18:37;13.10;;;3.63;;
66380;SDS011;53177;52.648;1.214;2023-03-31T10:21:06;16.90;;;4.25;;
66380;SDS011;53177;52.648;1.214;2023-03-31T10:23:40;15.10;;;3.50;;
66380;SDS011;53177;52.648;1.214;2023-03-31T10:26:12;12.33;;;2.83;;
66380;SDS011;53177;52.648;1.214;2023-03-31T10:28:42;11.80;;;2.80;;
66380;SDS011;53177;52.648;1.214;2023-03-31T10:31:07;11.20;;;3.07;;
66380;SDS011;53177;52.648;1.214;2023-03-31T10:33:33;17.77;;;4.30;;
66380;SDS011;53177;52.648;1.214;2023-03-31T10:36:39;14.85;;;3.40;;
66380;SDS011;53177;52.648;1.214;2023-03-31T10:38:59;13.10;;;2.60;;
66380;SDS011;53177;52.648;1.214;2023-03-31T10:41:30;14.52;;;2.95;;
66380;SDS011;53177;52.648;1.214;2023-03-31T10:43:57;13.70;;;2.60;;
66380;SDS011;53177;52.648;1.214;2023-03-31T10:49:26;10.95;;;2.30;;
66380;SDS011;53177;52.648;1.214;2023-03-31T10:51:52;12.73;;;2.37;;
66380;SDS011;53177;52.648;1.214;2023-03-31T10:54:20;12.75;;;2.40;;
66380;SDS011;53177;52.648;1.214;2023-03-31T10:56:46;14.48;;;2.53;;
66380;SDS011;53177;52.648;1.214;2023-03-31T11:07:53;13.82;;;2.97;;
66380;SDS011;53177;52.648;1.214;2023-03-31T11:10:33;12.35;;;2.28;;
66380;SDS011;53177;52.648;1.214;2023-03-31T11:13:25;14.03;;;2.67;;
66380;SDS011;53177;52.648;1.214;2023-03-31T11:16:13;12.40;;;2.72;;
66380;SDS011;53177;52.648;1.214;2023-03-31T11:24:31;14.52;;;2.92;;
66380;SDS011;53177;52.648;1.214;2023-03-31T11:30:37;15.15;;;2.67;;
66380;SDS011;53177;52.648;1.214;2023-03-31T11:33:10;14.95;;;2.30;;
66380;SDS011;53177;52.648;1.214;2023-03-31T11:41:48;14.70;;;1.97;;
66380;SDS011;53177;52.648;1.214;2023-03-31T11:44:17;13.43;;;2.05;;
66380;SDS011;53177;52.648;1.214;2023-03-31T11:46:52;10.65;;;2.33;;
66380;SDS011;53177;52.648;1.214;2023-03-31T11:49:28;9.88;;;2.60;;
66380;SDS011;53177;52.648;1.214;2023-03-31T11:52:05;13.75;;;2.47;;
66380;SDS011;53177;52.648;1.214;2023-03-31T11:54:42;15.50;;;2.50;;
66380;SDS011;53177;52.648;1.214;2023-03-31T11:57:12;18.20;;;2.78;;
66380;SDS011;53177;52.648;1.214;2023-03-31T11:59:43;11.38;;;2.30;;
66380;SDS011;53177;52.648;1.214;2023-03-31T12:02:57;12.75;;;2.38;;
66380;SDS011;53177;52.648;1.214;2023-03-31T12:05:08;8.90;;;1.70;;
66380;SDS011;53177;52.648;1.214;2023-03-31T12:12:57;13.20;;;2.58;;
66380;SDS011;53177;52.648;1.214;2023-03-31T12:15:30;11.52;;;2.38;;
66380;SDS011;53177;52.648;1.214;2023-03-31T12:18:20;11.57;;;2.17;;
66380;SDS011;53177;52.648;1.214;2023-03-31T12:20:51;10.63;;;2.30;;
66380;SDS011;53177;52.648;1.214;2023-03-31T12:23:25;13.15;;;1.92;;
66380;SDS011;53177;52.648;1.214;2023-03-31T12:28:30;10.52;;;1.90;;
66380;SDS011;53177;52.648;1.214;2023-03-31T12:30:57;7.55;;;1.75;;
66380;SDS011;53177;52.648;1.214;2023-03-31T12:33:31;9.13;;;1.67;;
66380;SDS011;53177;52.648;1.214;2023-03-31T12:36:19;8.77;;;1.50;;
66380;SDS011;53177;52.648;1.214;2023-03-31T12:39:01;10.50;;;1.63;;
66380;SDS011;53177;52.648;1.214;2023-03-31T12:44:22;5.07;;;1.27;;
66380;SDS011;53177;52.648;1.214;2023-03-31T12:57:40;6.30;;;1.30;;
66380;SDS011;53177;52.648;1.214;2023-03-31T13:00:14;6.20;;;1.20;;
66380;SDS011;53177;52.648;1.214;2023-03-31T13:02:45;5.72;;;0.82;;
66380;SDS011;53177;52.648;1.214;2023-03-31T13:08:02;4.50;;;0.90;;
66380;SDS011;53177;52.648;1.214;2023-03-31T13:10:29;3.17;;;0.60;;
66380;SDS011;53177;52.648;1.214;2023-03-31T13:13:00;3.97;;;0.90;;
66380;SDS011;53177;52.648;1.214;2023-03-31T13:15:28;4.10;;;0.90;;
66380;SDS011;53177;52.648;1.214;2023-03-31T13:17:56;5.18;;;0.93;;
66380;SDS011;53177;52.648;1.214;2023-03-31T13:20:29;5.05;;;0.95;;
66380;SDS011;53177;52.648;1.214;2023-03-31T13:23:05;4.73;;;0.70;;
66380;SDS011;53177;52.648;1.214;2023-03-31T13:25:39;4.55;;;0.75;;
66380;SDS011;53177;52.648;1.214;2023-03-31T13:28:09;4.55;;;0.75;;
66380;SDS011;53177;52.648;1.214;2023-03-31T13:33:04;5.60;;;0.90;;
66380;SDS011;53177;52.648;1.214;2023-03-31T13:35:34;6.15;;;1.00;;
66380;SDS011;53177;52.648;1.214;2023-03-31T13:57:26;6.70;;;1.10;;
66380;SDS011;53177;52.648;1.214;2023-03-31T14:05:28;4.27;;;1.00;;
66380;SDS011;53177;52.648;1.214;2023-03-31T14:07:58;5.45;;;1.10;;
66380;SDS011;53177;52.648;1.214;2023-03-31T14:10:44;4.18;;;0.80;;
66380;SDS011;53177;52.648;1.214;2023-03-31T14:15:47;4.53;;;1.13;;
66380;SDS011;53177;52.648;1.214;2023-03-31T14:18:21;5.43;;;1.00;;
66380;SDS011;53177;52.648;1.214;2023-03-31T14:21:00;4.00;;;1.30;;
66380;SDS011;53177;52.648;1.214;2023-03-31T14:31:44;4.97;;;1.30;;
66380;SDS011;53177;52.648;1.214;2023-03-31T14:34:48;4.45;;;1.13;;
66380;SDS011;53177;52.648;1.214;2023-03-31T14:37:25;6.00;;;1.50;;
66380;SDS011;53177;52.648;1.214;2023-03-31T14:39:52;7.80;;;1.27;;
66380;SDS011;53177;52.648;1.214;2023-03-31T14:45:01;5.65;;;1.80;;
66380;SDS011;53177;52.648;1.214;2023-03-31T14:47:28;10.00;;;3.40;;
66380;SDS011;53177;52.648;1.214;2023-03-31T14:52:47;7.68;;;2.10;;
66380;SDS011;53177;52.648;1.214;2023-03-31T14:55:16;8.82;;;2.13;;
66380;SDS011;53177;52.648;1.214;2023-03-31T14:57:46;7.40;;;2.15;;
66380;SDS011;53177;52.648;1.214;2023-03-31T15:00:17;6.88;;;2.03;;
66380;SDS011;53177;52.648;1.214;2023-03-31T15:02:50;6.40;;;1.52;;
66380;SDS011;53177;52.648;1.214;2023-03-31T15:05:29;6.63;;;1.35;;
66380;SDS011;53177;52.648;1.214;2023-03-31T15:08:06;5.53;;;1.40;;
66380;SDS011;53177;52.648;1.214;2023-03-31T15:10:37;6.63;;;1.77;;
66380;SDS011;53177;52.648;1.214;2023-03-31T15:13:07;9.55;;;2.72;;
66380;SDS011;53177;52.648;1.214;2023-03-31T15:15:34;9.13;;;2.40;;
66380;SDS011;53177;52.648;1.214;2023-03-31T15:17:59;11.37;;;2.33;;
66380;SDS011;53177;52.648;1.214;2023-03-31T15:20:30;10.35;;;2.72;;
66380;SDS011;53177;52.648;1.214;2023-03-31T15:23:00;12.25;;;3.13;;
66380;SDS011;53177;52.648;1.214;2023-03-31T15:25:28;16.65;;;3.65;;
66380;SDS011;53177;52.648;1.214;2023-03-31T15:28:09;12.50;;;3.20;;
66380;SDS011;53177;52.648;1.214;2023-03-31T15:30:38;15.90;;;3.40;;
66380;SDS011;53177;52.648;1.214;2023-03-31T15:33:07;13.20;;;3.45;;
66380;SDS011;53177;52.648;1.214;2023-03-31T15:35:40;17.55;;;3.30;;
66380;SDS011;53177;52.648;1.214;2023-03-31T15:38:08;13.80;;;4.00;;
66380;SDS011;53177;52.648;1.214;2023-03-31T15:40:36;15.40;;;2.97;;
66380;SDS011;53177;52.648;1.214;2023-03-31T15:45:35;13.40;;;2.88;;
66380;SDS011;53177;52.648;1.214;2023-03-31T15:48:11;15.10;;;3.55;;
66380;SDS011;53177;52.648;1.214;2023-03-31T15:50:41;12.32;;;3.42;;
66380;SDS011;53177;52.648;1.214;2023-03-31T15:53:20;16.52;;;3.05;;
66380;SDS011;53177;52.648;1.214;2023-03-31T15:55:49;9.38;;;2.58;;
66380;SDS011;53177;52.648;1.214;2023-03-31T15:58:17;12.00;;;2.47;;
66380;SDS011;53177;52.648;1.214;2023-03-31T16:03:25;10.23;;;2.13;;
66380;SDS011;53177;52.648;1.214;2023-03-31T16:06:00;10.85;;;2.40;;
66380;SDS011;53177;52.648;1.214;2023-03-31T16:08:37;13.75;;;2.50;;
66380;SDS011;53177;52.648;1.214;2023-03-31T16:11:11;14.30;;;2.83;;
66380;SDS011;53177;52.648;1.214;2023-03-31T16:13:40;13.18;;;3.22;;
66380;SDS011;53177;52.648;1.214;2023-03-31T16:16:11;12.38;;;2.30;;
66380;SDS011;53177;52.648;1.214;2023-03-31T16:18:49;13.45;;;2.72;;
66380;SDS011;53177;52.648;1.214;2023-03-31T16:21:22;13.35;;;2.75;;
66380;SDS011;53177;52.648;1.214;2023-03-31T16:23:51;14.07;;;2.38;;
66380;SDS011;53177;52.648;1.214;2023-03-31T16:26:21;15.05;;;2.80;;
66380;SDS011;53177;52.648;1.214;2023-03-31T16:28:49;13.07;;;2.17;;
66380;SDS011;53177;52.648;1.214;2023-03-31T16:31:26;15.93;;;3.10;;
66380;SDS011;53177;52.648;1.214;2023-03-31T16:33:53;19.23;;;3.38;;
66380;SDS011;53177;52.648;1.214;2023-03-31T16:36:20;17.33;;;3.10;;
66380;SDS011;53177;52.648;1.214;2023-03-31T16:38:45;17.03;;;3.20;;
66380;SDS011;53177;52.648;1.214;2023-03-31T16:41:11;17.37;;;3.20;;
66380;SDS011;53177;52.648;1.214;2023-03-31T16:43:38;14.98;;;3.10;;
66380;SDS011;53177;52.648;1.214;2023-03-31T16:46:03;20.60;;;3.33;;
66380;SDS011;53177;52.648;1.214;2023-03-31T16:48:29;17.20;;;3.27;;
66380;SDS011;53177;52.648;1.214;2023-03-31T16:50:58;22.67;;;3.15;;
66380;SDS011;53177;52.648;1.214;2023-03-31T16:53:28;15.32;;;3.03;;
66380;SDS011;53177;52.648;1.214;2023-03-31T16:55:55;15.73;;;3.22;;
66380;SDS011;53177;52.648;1.214;2023-03-31T16:58:21;18.40;;;3.37;;
66380;SDS011;53177;52.648;1.214;2023-03-31T17:00:50;17.23;;;3.53;;
66380;SDS011;53177;52.648;1.214;2023-03-31T17:03:16;17.42;;;3.67;;
66380;SDS011;53177;52.648;1.214;2023-03-31T17:05:43;20.13;;;3.70;;
66380;SDS011;53177;52.648;1.214;2023-03-31T17:08:14;26.38;;;4.40;;
66380;SDS011;53177;52.648;1.214;2023-03-31T17:10:41;21.20;;;3.95;;
66380;SDS011;53177;52.648;1.214;2023-03-31T17:13:14;27.80;;;5.05;;
66380;SDS011;53177;52.648;1.214;2023-03-31T17:15:40;24.95;;;4.38;;
66380;SDS011;53177;52.648;1.214;2023-03-31T17:18:05;27.10;;;5.03;;
66380;SDS011;53177;52.648;1.214;2023-03-31T17:20:31;25.50;;;4.50;;
66380;SDS011;53177;52.648;1.214;2023-03-31T17:22:56;27.98;;;4.57;;
66380;SDS011;53177;52.648;1.214;2023-03-31T17:25:22;22.60;;;4.63;;
66380;SDS011;53177;52.648;1.214;2023-03-31T17:27:51;25.35;;;4.38;;